Time;durP1;ratioP1;P1;durP2;ratioP2;P2;SDS_P1;SDS_P2;PMS_P1;PMS_P2;Temp;Humidity;BMP_temperature;BMP_pressure;BME280_temperature;BME280_humidity;BME280_pressure;Samples;Min_cycle;Max_cycle;Signal;HPM_P1;HPM_P2
2021/12/29 00:00:52;;;;;;;46.20;18.73;;;;;;;;;;4694550;30;20041;-81
2021/12/29 00:03:41;;;;;;;37.95;17.17;;;;;;;;;;4695110;30;20045;-81
2021/12/29 00:06:36;;;;;;;42.20;17.00;;;;;;;;;;4694995;30;20050;-83
2021/12/29 00:10:15;;;;;;;26.08;11.55;;;;;;;;;;4708651;30;20053;-82
2021/12/29 00:13:29;;;;;;;36.80;17.20;;;;;;;;;;4688231;30;20054;-81
2021/12/29 00:16:22;;;;;;;33.67;14.70;;;;;;;;;;4721738;30;20069;-79
2021/12/29 00:22:27;;;;;;;33.53;13.55;;;;;;;;;;4703772;30;20046;-82
2021/12/29 00:25:21;;;;;;;24.65;11.80;;;;;;;;;;4694301;30;20053;-82
2021/12/29 00:28:11;;;;;;;32.97;14.65;;;;;;;;;;4705901;30;20058;-81
2021/12/29 00:31:02;;;;;;;29.67;13.77;;;;;;;;;;4694334;30;20057;-83
2021/12/29 00:34:09;;;;;;;50.35;23.05;;;;;;;;;;4701106;30;20491;-82
2021/12/29 00:37:13;;;;;;;34.28;16.35;;;;;;;;;;4691876;30;20041;-81
2021/12/29 00:40:25;;;;;;;39.85;17.30;;;;;;;;;;4689584;30;20049;-81
2021/12/29 00:43:29;;;;;;;42.63;16.50;;;;;;;;;;4701694;30;20061;-82
2021/12/29 00:46:43;;;;;;;28.35;10.93;;;;;;;;;;4696146;30;20045;-81
2021/12/29 00:49:33;;;;;;;24.63;11.35;;;;;;;;;;4701750;30;20426;-81
2021/12/29 00:52:18;;;;;;;18.20;9.65;;;;;;;;;;4701378;30;20049;-81
2021/12/29 00:55:05;;;;;;;29.35;14.00;;;;;;;;;;4701537;30;20083;-81
2021/12/29 00:57:51;;;;;;;29.83;13.98;;;;;;;;;;4693478;30;20054;-81
2021/12/29 01:00:40;;;;;;;37.55;14.75;;;;;;;;;;4707706;30;20054;-81
2021/12/29 01:03:26;;;;;;;33.95;14.68;;;;;;;;;;4701280;30;20053;-82
2021/12/29 01:06:12;;;;;;;29.33;12.90;;;;;;;;;;4701766;30;20062;-81
2021/12/29 01:08:58;;;;;;;34.35;14.85;;;;;;;;;;4707258;30;20049;-82
2021/12/29 01:11:43;;;;;;;24.92;12.02;;;;;;;;;;4706284;30;20053;-81
2021/12/29 01:14:30;;;;;;;33.40;14.48;;;;;;;;;;4688780;30;20057;-81
2021/12/29 01:17:16;;;;;;;34.42;13.48;;;;;;;;;;4705930;30;20045;-81
2021/12/29 01:20:02;;;;;;;38.65;16.13;;;;;;;;;;4707668;30;20053;-81
2021/12/29 01:22:48;;;;;;;36.17;14.82;;;;;;;;;;4700983;30;20041;-81
2021/12/29 01:25:33;;;;;;;32.00;14.77;;;;;;;;;;4688406;30;20403;-81
2021/12/29 01:28:18;;;;;;;41.03;17.70;;;;;;;;;;4706427;30;20049;-81
2021/12/29 01:31:04;;;;;;;46.40;21.02;;;;;;;;;;4700869;30;20058;-81
2021/12/29 01:33:49;;;;;;;44.78;19.58;;;;;;;;;;4705997;30;20073;-81
2021/12/29 01:36:37;;;;;;;43.08;18.63;;;;;;;;;;4705774;30;20446;-81
2021/12/29 01:39:23;;;;;;;43.38;18.02;;;;;;;;;;4706156;30;20053;-81
2021/12/29 01:42:09;;;;;;;34.38;15.38;;;;;;;;;;4701286;30;20057;-81
2021/12/29 01:44:54;;;;;;;31.80;14.35;;;;;;;;;;4700750;30;20049;-81
2021/12/29 01:47:40;;;;;;;28.50;13.98;;;;;;;;;;4705677;30;20058;-81
2021/12/29 01:50:26;;;;;;;31.38;14.38;;;;;;;;;;4705645;30;20057;-81
2021/12/29 01:53:21;;;;;;;27.27;13.00;;;;;;;;;;4705800;30;20402;-81
2021/12/29 01:56:10;;;;;;;33.10;14.50;;;;;;;;;;4700967;30;20411;-82
2021/12/29 01:58:56;;;;;;;30.95;14.52;;;;;;;;;;4699664;30;20486;-83
2021/12/29 02:01:43;;;;;;;34.20;14.07;;;;;;;;;;4700896;30;20065;-83
2021/12/29 02:04:28;;;;;;;113.93;35.72;;;;;;;;;;4693202;30;20057;-81
2021/12/29 02:07:14;;;;;;;36.35;16.20;;;;;;;;;;4705997;30;20061;-83
2021/12/29 02:10:00;;;;;;;42.13;15.82;;;;;;;;;;4699866;30;20406;-83
2021/12/29 02:12:48;;;;;;;40.10;17.17;;;;;;;;;;4693172;30;20053;-83
2021/12/29 02:15:33;;;;;;;50.95;20.10;;;;;;;;;;4693656;30;20061;-83
2021/12/29 02:18:21;;;;;;;71.50;29.23;;;;;;;;;;4693658;30;20467;-83
2021/12/29 02:21:06;;;;;;;73.35;28.08;;;;;;;;;;4687787;30;20053;-82
2021/12/29 02:26:44;;;;;;;49.63;22.17;;;;;;;;;;4705349;30;20049;-83
2021/12/29 02:29:31;;;;;;;186.18;67.05;;;;;;;;;;4688087;30;20479;-83
2021/12/29 02:32:17;;;;;;;53.60;23.88;;;;;;;;;;4693454;30;20069;-82
2021/12/29 02:35:03;;;;;;;81.68;31.58;;;;;;;;;;4705572;30;20050;-83
2021/12/29 02:37:49;;;;;;;34.92;16.02;;;;;;;;;;4694207;30;20386;-83
2021/12/29 02:40:35;;;;;;;41.50;18.65;;;;;;;;;;4706530;30;20058;-83
2021/12/29 02:43:23;;;;;;;50.78;23.63;;;;;;;;;;4697029;30;20061;-82
2021/12/29 02:46:12;;;;;;;71.18;28.83;;;;;;;;;;4708723;30;20053;-83
2021/12/29 02:48:59;;;;;;;66.53;26.65;;;;;;;;;;4696436;30;20482;-83
2021/12/29 02:51:45;;;;;;;46.45;19.85;;;;;;;;;;4709145;30;20406;-84
2021/12/29 02:54:34;;;;;;;38.80;17.40;;;;;;;;;;4696952;30;20057;-83
2021/12/29 02:57:28;;;;;;;34.42;15.75;;;;;;;;;;4691396;30;20045;-82
2021/12/29 03:00:14;;;;;;;50.15;19.35;;;;;;;;;;4708665;30;20057;-83
2021/12/29 03:03:18;;;;;;;37.13;16.58;;;;;;;;;;4707394;30;20053;-83
2021/12/29 03:06:08;;;;;;;40.15;17.92;;;;;;;;;;4712850;30;20057;-83
2021/12/29 03:08:54;;;;;;;38.65;17.02;;;;;;;;;;4694369;30;20495;-82
2021/12/29 03:11:43;;;;;;;44.05;20.75;;;;;;;;;;4726932;30;20061;-78
2021/12/29 03:14:31;;;;;;;41.75;20.23;;;;;;;;;;4708603;30;20053;-82
2021/12/29 03:17:18;;;;;;;39.60;18.92;;;;;;;;;;4702869;30;20049;-83
2021/12/29 03:20:04;;;;;;;39.33;18.33;;;;;;;;;;4696264;30;20482;-83
2021/12/29 03:22:49;;;;;;;37.80;16.60;;;;;;;;;;4695770;30;20050;-82
2021/12/29 03:25:35;;;;;;;36.13;16.52;;;;;;;;;;4708431;30;20054;-83
2021/12/29 03:28:24;;;;;;;37.33;16.90;;;;;;;;;;4684069;30;20057;-83
2021/12/29 03:31:14;;;;;;;41.33;18.83;;;;;;;;;;4708153;30;20053;-83
2021/12/29 03:34:00;;;;;;;39.97;18.92;;;;;;;;;;4702427;30;20053;-83
2021/12/29 03:36:45;;;;;;;49.35;20.20;;;;;;;;;;4695681;30;20050;-83
2021/12/29 03:39:38;;;;;;;48.05;20.50;;;;;;;;;;4696022;30;20053;-82
2021/12/29 03:42:26;;;;;;;48.45;19.42;;;;;;;;;;4707625;30;20402;-82
2021/12/29 03:45:11;;;;;;;49.42;21.00;;;;;;;;;;4707999;30;20057;-83
2021/12/29 03:47:57;;;;;;;49.17;20.67;;;;;;;;;;4695626;30;20500;-82
2021/12/29 03:50:43;;;;;;;54.45;22.30;;;;;;;;;;4695538;30;20411;-82
2021/12/29 03:53:29;;;;;;;51.97;22.98;;;;;;;;;;4707106;30;20498;-82
2021/12/29 03:56:15;;;;;;;68.00;23.65;;;;;;;;;;4707434;30;20049;-82
2021/12/29 03:59:00;;;;;;;67.78;24.30;;;;;;;;;;4704071;30;20049;-83
2021/12/29 04:01:50;;;;;;;50.75;22.88;;;;;;;;;;4689975;30;20050;-83
2021/12/29 04:04:35;;;;;;;64.95;24.15;;;;;;;;;;4695173;30;20053;-82
2021/12/29 04:07:20;;;;;;;57.83;22.98;;;;;;;;;;4707371;30;20054;-83
2021/12/29 04:10:08;;;;;;;56.72;23.08;;;;;;;;;;4707174;30;20061;-82
2021/12/29 04:12:53;;;;;;;63.53;22.83;;;;;;;;;;4683156;30;20402;-83
2021/12/29 04:15:38;;;;;;;58.78;22.88;;;;;;;;;;4707792;30;20478;-83
2021/12/29 04:18:27;;;;;;;65.65;22.38;;;;;;;;;;4689526;30;20491;-83
2021/12/29 04:21:13;;;;;;;65.07;24.20;;;;;;;;;;4695453;30;20053;-82
2021/12/29 04:23:58;;;;;;;77.97;25.73;;;;;;;;;;4707385;30;20057;-81
2021/12/29 04:26:44;;;;;;;85.70;26.90;;;;;;;;;;4695339;30;20053;-82
2021/12/29 04:29:30;;;;;;;78.75;27.83;;;;;;;;;;4682818;30;20053;-83
2021/12/29 04:32:16;;;;;;;95.53;30.58;;;;;;;;;;4695170;30;20057;-82
2021/12/29 04:35:02;;;;;;;95.32;30.63;;;;;;;;;;4695336;30;20061;-82
2021/12/29 04:37:47;;;;;;;87.53;30.58;;;;;;;;;;4689416;30;20049;-82
2021/12/29 04:40:33;;;;;;;87.97;32.50;;;;;;;;;;4694825;30;20075;-82
2021/12/29 04:43:19;;;;;;;81.88;29.67;;;;;;;;;;4695231;30;20057;-82
2021/12/29 04:46:05;;;;;;;103.35;33.05;;;;;;;;;;4694783;30;20053;-82
2021/12/29 04:48:57;;;;;;;83.00;27.80;;;;;;;;;;4706815;30;20046;-83
2021/12/29 04:51:48;;;;;;;73.15;25.73;;;;;;;;;;4683038;30;20414;-82
2021/12/29 04:54:34;;;;;;;79.47;26.73;;;;;;;;;;4694693;30;20045;-82
2021/12/29 04:57:19;;;;;;;60.78;22.27;;;;;;;;;;4694797;30;20402;-83
2021/12/29 05:00:07;;;;;;;84.32;28.60;;;;;;;;;;4701713;30;20053;-83
2021/12/29 05:02:53;;;;;;;67.18;23.83;;;;;;;;;;4688737;30;20082;-80
2021/12/29 05:05:52;;;;;;;76.97;26.50;;;;;;;;;;4706798;30;20046;-82
2021/12/29 05:08:37;;;;;;;58.72;22.80;;;;;;;;;;4706252;30;20046;-82
2021/12/29 05:11:23;;;;;;;56.13;20.33;;;;;;;;;;4707001;30;20053;-82
2021/12/29 05:14:08;;;;;;;55.60;20.10;;;;;;;;;;4706052;30;20411;-82
2021/12/29 05:16:54;;;;;;;56.40;21.08;;;;;;;;;;4707852;30;20041;-81
2021/12/29 05:19:40;;;;;;;48.35;18.95;;;;;;;;;;4706507;30;20061;-81
2021/12/29 05:22:25;;;;;;;50.92;19.48;;;;;;;;;;4706631;30;20053;-82
2021/12/29 05:25:11;;;;;;;50.22;20.73;;;;;;;;;;4712765;30;20050;-81
2021/12/29 05:27:56;;;;;;;57.80;23.13;;;;;;;;;;4706443;30;20054;-82
2021/12/29 05:30:42;;;;;;;56.67;22.92;;;;;;;;;;4712458;30;20057;-82
2021/12/29 05:33:27;;;;;;;50.72;20.48;;;;;;;;;;4706896;30;20399;-83
2021/12/29 05:36:13;;;;;;;50.53;21.08;;;;;;;;;;4701098;30;20054;-82
2021/12/29 05:38:59;;;;;;;55.60;21.42;;;;;;;;;;4706981;30;20057;-82
2021/12/29 05:41:45;;;;;;;54.28;23.27;;;;;;;;;;4701068;30;20071;-81
2021/12/29 05:44:30;;;;;;;55.63;22.67;;;;;;;;;;4707055;30;20053;-82
2021/12/29 05:47:14;;;;;;;59.15;24.45;;;;;;;;;;4700331;30;20045;-82
2021/12/29 05:50:00;;;;;;;73.20;25.88;;;;;;;;;;4699321;30;20050;-82
2021/12/29 05:52:46;;;;;;;79.75;29.17;;;;;;;;;;4704700;30;20057;-82
2021/12/29 05:55:31;;;;;;;77.60;28.90;;;;;;;;;;4700963;30;20050;-82
2021/12/29 05:58:17;;;;;;;65.40;28.02;;;;;;;;;;4699429;30;20058;-80
2021/12/29 06:01:03;;;;;;;68.03;26.42;;;;;;;;;;4709704;30;20489;-83
2021/12/29 06:03:49;;;;;;;71.82;25.10;;;;;;;;;;4709768;30;20057;-80
2021/12/29 06:06:35;;;;;;;56.50;24.42;;;;;;;;;;4715320;30;20041;-81
2021/12/29 06:09:20;;;;;;;58.05;24.38;;;;;;;;;;4710076;30;20061;-84
2021/12/29 06:12:06;;;;;;;59.15;24.67;;;;;;;;;;4706490;30;20058;-84
2021/12/29 06:14:51;;;;;;;69.20;26.67;;;;;;;;;;4699615;30;20462;-83
2021/12/29 06:17:38;;;;;;;50.20;22.73;;;;;;;;;;4701523;30;20053;-83
2021/12/29 06:20:24;;;;;;;53.30;25.45;;;;;;;;;;4703115;30;20053;-84
2021/12/29 06:23:12;;;;;;;48.17;23.75;;;;;;;;;;4709199;30;20049;-85
2021/12/29 06:25:58;;;;;;;62.72;28.42;;;;;;;;;;4709554;30;20061;-83
2021/12/29 06:28:44;;;;;;;74.82;32.13;;;;;;;;;;4709431;30;20061;-83
2021/12/29 06:31:29;;;;;;;100.88;38.65;;;;;;;;;;4703940;30;20057;-84
2021/12/29 06:34:15;;;;;;;84.75;33.40;;;;;;;;;;4704210;30;20049;-83
2021/12/29 06:37:03;;;;;;;85.45;34.03;;;;;;;;;;4708482;30;20057;-84
2021/12/29 06:39:49;;;;;;;61.13;25.80;;;;;;;;;;4708886;30;20410;-85
2021/12/29 06:42:35;;;;;;;62.75;28.40;;;;;;;;;;4704329;30;20041;-84
2021/12/29 06:45:21;;;;;;;64.95;30.52;;;;;;;;;;4703892;30;20058;-84
2021/12/29 06:48:06;;;;;;;61.70;28.55;;;;;;;;;;4709581;30;20054;-83
2021/12/29 06:50:52;;;;;;;64.43;31.55;;;;;;;;;;4704036;30;20050;-84
2021/12/29 06:53:38;;;;;;;65.00;31.33;;;;;;;;;;4708940;30;20065;-84
2021/12/29 06:56:23;;;;;;;61.38;28.67;;;;;;;;;;4703936;30;20053;-84
2021/12/29 06:59:08;;;;;;;72.65;32.45;;;;;;;;;;4703800;30;20053;-84
2021/12/29 07:01:53;;;;;;;57.40;29.40;;;;;;;;;;4708497;30;20057;-85
2021/12/29 07:04:39;;;;;;;59.97;29.35;;;;;;;;;;4703915;30;20054;-82
2021/12/29 07:07:24;;;;;;;64.75;29.77;;;;;;;;;;4708525;30;20065;-83
2021/12/29 07:10:09;;;;;;;65.00;31.17;;;;;;;;;;4708646;30;20049;-83
2021/12/29 07:12:55;;;;;;;71.47;34.72;;;;;;;;;;4709272;30;20061;-82
2021/12/29 07:15:40;;;;;;;73.15;34.40;;;;;;;;;;4703758;30;20071;-84
2021/12/29 07:18:26;;;;;;;103.38;44.53;;;;;;;;;;4703261;30;20058;-86
2021/12/29 07:21:11;;;;;;;81.05;41.35;;;;;;;;;;4709405;30;20061;-84
2021/12/29 07:23:57;;;;;;;116.10;57.50;;;;;;;;;;4703937;30;20410;-84
2021/12/29 07:26:44;;;;;;;103.45;51.70;;;;;;;;;;4703166;30;20057;-83
2021/12/29 07:29:30;;;;;;;140.63;54.22;;;;;;;;;;4708561;30;20049;-84
2021/12/29 07:32:15;;;;;;;82.95;39.50;;;;;;;;;;4690157;30;20058;-85
2021/12/29 07:35:00;;;;;;;65.40;30.50;;;;;;;;;;4702961;30;20053;-85
2021/12/29 07:37:46;;;;;;;167.85;58.28;;;;;;;;;;4703662;30;20057;-84
2021/12/29 07:40:34;;;;;;;114.57;44.95;;;;;;;;;;4702797;30;20424;-84
2021/12/29 07:43:20;;;;;;;82.20;41.83;;;;;;;;;;4703196;30;20065;-82
2021/12/29 07:46:07;;;;;;;58.15;30.02;;;;;;;;;;4707909;30;20062;-83
2021/12/29 07:48:52;;;;;;;47.95;25.58;;;;;;;;;;4707381;30;20506;-86
2021/12/29 07:51:40;;;;;;;66.28;32.63;;;;;;;;;;4709005;30;20049;-84
2021/12/29 07:54:25;;;;;;;69.35;29.52;;;;;;;;;;4701876;30;20407;-83
2021/12/29 07:57:10;;;;;;;57.10;30.33;;;;;;;;;;4703120;30;20050;-83
2021/12/29 07:59:56;;;;;;;59.78;28.58;;;;;;;;;;4703335;30;20050;-85
2021/12/29 08:02:44;;;;;;;60.88;32.40;;;;;;;;;;4708325;30;20053;-86
2021/12/29 08:05:29;;;;;;;57.10;29.80;;;;;;;;;;4703050;30;20053;-83
2021/12/29 08:08:14;;;;;;;83.28;41.35;;;;;;;;;;4708569;30;20062;-83
2021/12/29 08:11:04;;;;;;;85.30;42.72;;;;;;;;;;4708764;30;20057;-84
2021/12/29 08:13:50;;;;;;;107.47;50.00;;;;;;;;;;4708103;30;20054;-82
2021/12/29 08:16:36;;;;;;;103.25;47.72;;;;;;;;;;4702532;30;20057;-85
2021/12/29 08:19:22;;;;;;;105.00;46.45;;;;;;;;;;4708408;30;20057;-84
2021/12/29 08:22:07;;;;;;;87.63;43.88;;;;;;;;;;4702299;30;20065;-86
2021/12/29 08:24:53;;;;;;;83.13;40.08;;;;;;;;;;4702314;30;20058;-85
2021/12/29 08:27:39;;;;;;;71.00;33.58;;;;;;;;;;4695280;30;20483;-84
2021/12/29 08:30:25;;;;;;;68.28;31.73;;;;;;;;;;4707093;30;20057;-84
2021/12/29 08:33:09;;;;;;;56.10;29.50;;;;;;;;;;4708306;30;20061;-84
2021/12/29 08:35:54;;;;;;;54.83;28.73;;;;;;;;;;4702596;30;20053;-82
2021/12/29 08:38:40;;;;;;;62.03;30.23;;;;;;;;;;4707590;30;20058;-83
2021/12/29 08:41:25;;;;;;;59.95;31.35;;;;;;;;;;4707273;30;20057;-85
2021/12/29 08:44:11;;;;;;;57.10;27.48;;;;;;;;;;4706873;30;20053;-83
2021/12/29 08:46:57;;;;;;;53.80;28.63;;;;;;;;;;4701769;30;20050;-83
2021/12/29 08:49:42;;;;;;;59.10;31.65;;;;;;;;;;4702382;30;20049;-82
2021/12/29 08:52:27;;;;;;;89.43;43.80;;;;;;;;;;4701646;30;20062;-84
2021/12/29 08:55:13;;;;;;;93.18;45.53;;;;;;;;;;4710024;30;20057;-85
2021/12/29 08:57:58;;;;;;;97.05;47.75;;;;;;;;;;4706355;30;20061;-85
2021/12/29 09:00:44;;;;;;;94.55;47.88;;;;;;;;;;4719003;30;20061;-79
2021/12/29 09:03:30;;;;;;;103.65;49.67;;;;;;;;;;4717961;30;20057;-82
2021/12/29 09:06:15;;;;;;;91.30;46.15;;;;;;;;;;4710858;30;20049;-81
2021/12/29 09:09:03;;;;;;;112.80;48.80;;;;;;;;;;4704690;30;20053;-86
2021/12/29 09:11:48;;;;;;;117.72;50.17;;;;;;;;;;4704409;30;20061;-86
2021/12/29 09:14:33;;;;;;;104.22;47.72;;;;;;;;;;4702089;30;20058;-84
2021/12/29 09:17:19;;;;;;;99.65;48.50;;;;;;;;;;4694529;30;20057;-86
2021/12/29 09:20:12;;;;;;;101.22;47.22;;;;;;;;;;4706979;30;20053;-82
2021/12/29 09:23:03;;;;;;;100.20;47.83;;;;;;;;;;4700855;30;20511;-81
2021/12/29 09:25:49;;;;;;;108.03;49.47;;;;;;;;;;4702741;30;20113;-85
2021/12/29 09:28:34;;;;;;;104.97;51.22;;;;;;;;;;4702521;30;20046;-85
2021/12/29 09:31:20;;;;;;;150.23;79.82;;;;;;;;;;4690719;30;20049;-84
2021/12/29 09:34:06;;;;;;;152.32;75.93;;;;;;;;;;4688973;30;20057;-81
2021/12/29 09:36:55;;;;;;;120.55;56.70;;;;;;;;;;4684239;30;20050;-83
2021/12/29 09:39:40;;;;;;;110.55;50.17;;;;;;;;;;4688944;30;20053;-81
2021/12/29 09:42:25;;;;;;;101.43;48.15;;;;;;;;;;4683765;30;20069;-81
2021/12/29 09:45:11;;;;;;;106.32;47.60;;;;;;;;;;4690837;30;20057;-83
2021/12/29 09:47:57;;;;;;;110.35;49.47;;;;;;;;;;4684196;30;20487;-84
2021/12/29 09:50:44;;;;;;;123.95;61.35;;;;;;;;;;4684112;30;20050;-84
2021/12/29 09:53:30;;;;;;;108.72;51.72;;;;;;;;;;4684992;30;20058;-82
2021/12/29 09:56:15;;;;;;;115.72;49.88;;;;;;;;;;4673231;30;20145;-82
2021/12/29 09:59:03;;;;;;;106.25;48.00;;;;;;;;;;4688868;30;20066;-81
2021/12/29 10:01:50;;;;;;;97.97;45.50;;;;;;;;;;4690910;30;20058;-83
2021/12/29 10:04:37;;;;;;;110.47;51.53;;;;;;;;;;4684579;30;20057;-84
2021/12/29 10:07:22;;;;;;;115.05;51.83;;;;;;;;;;4683703;30;20491;-83
2021/12/29 10:10:16;;;;;;;114.05;53.15;;;;;;;;;;4684263;30;20463;-83
2021/12/29 10:13:03;;;;;;;122.40;58.45;;;;;;;;;;4689790;30;20054;-84
2021/12/29 10:15:55;;;;;;;108.25;49.78;;;;;;;;;;4689677;30;20054;-83
2021/12/29 10:18:43;;;;;;;119.55;52.47;;;;;;;;;;4689449;30;20058;-83
2021/12/29 10:21:29;;;;;;;100.90;47.10;;;;;;;;;;4684727;30;20057;-83
2021/12/29 10:24:19;;;;;;;100.70;46.42;;;;;;;;;;4684220;30;20057;-84
2021/12/29 10:27:05;;;;;;;106.50;47.67;;;;;;;;;;4688808;30;20058;-82
2021/12/29 10:29:50;;;;;;;111.78;48.72;;;;;;;;;;4683380;30;20058;-81
2021/12/29 10:32:36;;;;;;;118.57;51.13;;;;;;;;;;4688507;30;20058;-82
2021/12/29 10:35:32;;;;;;;110.70;50.40;;;;;;;;;;4683278;30;20058;-83
2021/12/29 10:38:24;;;;;;;119.68;51.95;;;;;;;;;;4684824;30;20050;-83
2021/12/29 10:41:10;;;;;;;118.25;51.70;;;;;;;;;;4691938;30;20455;-82
2021/12/29 10:44:02;;;;;;;111.47;50.88;;;;;;;;;;4685581;30;20058;-81
2021/12/29 10:46:47;;;;;;;124.38;53.83;;;;;;;;;;4685575;30;20061;-84
2021/12/29 10:49:33;;;;;;;123.20;56.35;;;;;;;;;;4664493;30;20050;-82
2021/12/29 10:52:38;;;;;;;131.68;62.72;;;;;;;;;;4684354;30;20058;-84
2021/12/29 10:55:35;;;;;;;126.43;56.38;;;;;;;;;;4677660;30;20066;-82
2021/12/29 10:58:23;;;;;;;96.85;46.33;;;;;;;;;;4687152;30;20054;-81
2021/12/29 11:01:11;;;;;;;117.57;51.85;;;;;;;;;;4689423;30;20061;-83
2021/12/29 11:03:58;;;;;;;114.70;52.58;;;;;;;;;;4689624;30;20046;-82
2021/12/29 11:06:47;;;;;;;111.65;51.90;;;;;;;;;;4693153;30;20050;-82
2021/12/29 11:09:36;;;;;;;119.10;56.47;;;;;;;;;;4697135;30;20054;-82
2021/12/29 11:12:23;;;;;;;98.63;46.38;;;;;;;;;;4693986;30;20046;-80
2021/12/29 11:15:18;;;;;;;103.85;48.67;;;;;;;;;;4688156;30;20062;-83
2021/12/29 11:18:10;;;;;;;111.07;53.28;;;;;;;;;;4687229;30;20058;-81
2021/12/29 11:20:58;;;;;;;107.60;48.83;;;;;;;;;;4686387;30;20054;-84
2021/12/29 11:23:43;;;;;;;108.28;49.15;;;;;;;;;;4703858;30;20046;-83
2021/12/29 11:26:31;;;;;;;111.88;52.40;;;;;;;;;;4688945;30;20058;-81
2021/12/29 11:29:19;;;;;;;95.35;43.13;;;;;;;;;;4694515;30;20054;-84
2021/12/29 11:32:07;;;;;;;110.85;49.03;;;;;;;;;;4699903;30;20487;-82
2021/12/29 11:35:12;;;;;;;116.18;53.20;;;;;;;;;;4698306;30;20075;-84
2021/12/29 11:38:00;;;;;;;111.70;51.00;;;;;;;;;;4699890;30;20046;-81
2021/12/29 11:40:49;;;;;;;110.45;49.22;;;;;;;;;;4697369;30;20050;-83
2021/12/29 11:43:34;;;;;;;106.25;47.35;;;;;;;;;;4701424;30;20049;-83
2021/12/29 11:46:24;;;;;;;100.45;48.22;;;;;;;;;;4704001;30;20054;-83
2021/12/29 11:49:10;;;;;;;87.20;40.42;;;;;;;;;;4709704;30;20049;-83
2021/12/29 11:51:58;;;;;;;97.38;43.83;;;;;;;;;;4704204;30;20069;-81
2021/12/29 11:54:45;;;;;;;79.47;38.95;;;;;;;;;;4708825;30;20479;-82
2021/12/29 11:57:33;;;;;;;104.85;49.03;;;;;;;;;;4710962;30;20050;-82
2021/12/29 12:00:30;;;;;;;88.53;41.92;;;;;;;;;;4719762;30;20049;-81
2021/12/29 12:03:17;;;;;;;95.50;45.00;;;;;;;;;;4716586;30;20053;-82
2021/12/29 12:06:05;;;;;;;102.13;47.63;;;;;;;;;;4709500;30;20053;-84
2021/12/29 12:09:10;;;;;;;94.50;47.88;;;;;;;;;;4708356;30;20053;-82
2021/12/29 12:12:00;;;;;;;79.45;39.38;;;;;;;;;;4715404;30;20057;-82
2021/12/29 12:14:51;;;;;;;107.18;50.25;;;;;;;;;;4710886;30;20061;-81
2021/12/29 12:17:36;;;;;;;83.20;41.45;;;;;;;;;;4717326;30;20054;-82
2021/12/29 12:20:22;;;;;;;86.53;39.72;;;;;;;;;;4703057;30;20406;-82
2021/12/29 12:23:07;;;;;;;90.88;42.58;;;;;;;;;;4704942;30;20498;-83
2021/12/29 12:25:54;;;;;;;83.18;39.90;;;;;;;;;;4706840;30;20049;-81
2021/12/29 12:28:44;;;;;;;86.97;41.28;;;;;;;;;;4709941;30;20061;-83
2021/12/29 12:31:31;;;;;;;71.13;32.88;;;;;;;;;;4709907;30;20057;-83
2021/12/29 12:34:22;;;;;;;61.90;31.85;;;;;;;;;;4707946;30;20053;-84
2021/12/29 12:37:19;;;;;;;74.78;36.42;;;;;;;;;;4702179;30;20049;-83
2021/12/29 12:40:10;;;;;;;54.97;30.48;;;;;;;;;;4707613;30;20057;-83
2021/12/29 12:43:11;;;;;;;49.00;27.55;;;;;;;;;;4701356;30;20503;-82
2021/12/29 12:45:57;;;;;;;46.80;26.63;;;;;;;;;;4694501;30;20046;-82
2021/12/29 12:48:42;;;;;;;48.55;28.15;;;;;;;;;;4694031;30;20054;-83
2021/12/29 12:51:29;;;;;;;48.42;30.27;;;;;;;;;;4693570;30;20050;-83
2021/12/29 12:54:22;;;;;;;63.05;32.38;;;;;;;;;;4696575;30;20054;-84
2021/12/29 12:57:08;;;;;;;56.97;31.73;;;;;;;;;;4702221;30;20502;-81
2021/12/29 13:00:03;;;;;;;67.95;36.17;;;;;;;;;;4700692;30;20053;-82
2021/12/29 13:02:51;;;;;;;;;;;;;;;;;;4708828;30;20057;-83
2021/12/29 13:05:45;;;;;;;71.00;37.28;;;;;;;;;;4701551;30;19922;-82
2021/12/29 13:08:36;;;;;;;56.80;31.52;;;;;;;;;;4701690;30;20418;-83
2021/12/29 13:11:24;;;;;;;59.33;33.58;;;;;;;;;;4701715;30;20054;-83
2021/12/29 13:14:10;;;;;;;62.05;33.63;;;;;;;;;;4707298;30;20399;-83
2021/12/29 13:16:55;;;;;;;62.97;34.80;;;;;;;;;;4707822;30;20053;-82
2021/12/29 13:19:47;;;;;;;55.83;31.00;;;;;;;;;;4708040;30;20061;-82
2021/12/29 13:22:33;;;;;;;48.35;27.70;;;;;;;;;;4704585;30;20045;-81
2021/12/29 13:25:24;;;;;;;42.40;24.95;;;;;;;;;;4709607;30;20053;-84
2021/12/29 13:28:15;;;;;;;49.38;28.13;;;;;;;;;;4705926;30;20049;-80
2021/12/29 13:31:11;;;;;;;54.42;29.88;;;;;;;;;;4710308;30;20053;-81
2021/12/29 13:33:57;;;;;;;48.78;28.90;;;;;;;;;;4702360;30;20418;-80
2021/12/29 13:36:45;;;;;;;47.55;29.30;;;;;;;;;;4708139;30;20061;-80
2021/12/29 13:39:31;;;;;;;71.38;41.05;;;;;;;;;;4701626;30;20057;-82
2021/12/29 13:42:16;;;;;;;54.67;32.25;;;;;;;;;;4701573;30;20427;-81
2021/12/29 13:45:02;;;;;;;55.03;32.55;;;;;;;;;;4684471;30;20511;-82
2021/12/29 13:47:48;;;;;;;55.25;30.48;;;;;;;;;;4689890;30;20058;-81
2021/12/29 13:50:34;;;;;;;47.05;26.85;;;;;;;;;;4688756;30;20058;-79
2021/12/29 13:53:20;;;;;;;52.83;30.05;;;;;;;;;;4682987;30;20061;-81
2021/12/29 13:56:18;;;;;;;61.08;33.22;;;;;;;;;;4688731;30;20410;-79
2021/12/29 13:59:09;;;;;;;96.20;51.70;;;;;;;;;;4697316;30;20065;-82
2021/12/29 14:02:05;;;;;;;64.70;38.75;;;;;;;;;;4695591;30;20495;-81
2021/12/29 14:04:52;;;;;;;68.90;37.28;;;;;;;;;;4697398;30;20050;-79
2021/12/29 14:07:38;;;;;;;68.32;38.42;;;;;;;;;;4697307;30;20057;-81
2021/12/29 14:10:25;;;;;;;73.70;40.92;;;;;;;;;;4688697;30;20057;-80
2021/12/29 14:13:17;;;;;;;80.32;44.55;;;;;;;;;;4694652;30;20499;-80
2021/12/29 14:16:10;;;;;;;99.05;53.88;;;;;;;;;;4696549;30;20057;-80
2021/12/29 14:18:57;;;;;;;98.43;51.80;;;;;;;;;;4699175;30;20057;-82
2021/12/29 14:21:43;;;;;;;99.07;50.85;;;;;;;;;;4689277;30;20057;-80
2021/12/29 14:24:28;;;;;;;86.70;46.00;;;;;;;;;;4689014;30;20050;-80
2021/12/29 14:27:24;;;;;;;82.40;45.10;;;;;;;;;;4690202;30;20433;-81
2021/12/29 14:30:18;;;;;;;75.88;40.60;;;;;;;;;;4694851;30;20058;-79
2021/12/29 14:33:04;;;;;;;79.07;42.83;;;;;;;;;;4704155;30;20053;-80
2021/12/29 14:35:55;;;;;;;70.18;38.78;;;;;;;;;;4700040;30;20498;-80
2021/12/29 14:38:42;;;;;;;80.53;42.17;;;;;;;;;;4709067;30;20054;-82
2021/12/29 14:41:28;;;;;;;81.50;44.15;;;;;;;;;;4702877;30;20053;-80
2021/12/29 14:44:16;;;;;;;95.55;50.03;;;;;;;;;;4693845;30;20054;-82
2021/12/29 14:47:05;;;;;;;99.22;51.25;;;;;;;;;;4708151;30;20057;-81
2021/12/29 14:50:13;;;;;;;100.50;51.78;;;;;;;;;;4709203;30;20058;-78
2021/12/29 14:53:05;;;;;;;97.75;53.83;;;;;;;;;;4708694;30;20057;-79
2021/12/29 14:55:52;;;;;;;101.30;53.13;;;;;;;;;;4711595;30;20054;-81
2021/12/29 14:58:40;;;;;;;113.68;60.15;;;;;;;;;;4705586;30;20069;-81
2021/12/29 15:01:30;;;;;;;122.63;64.22;;;;;;;;;;4697498;30;20069;-80
2021/12/29 15:04:21;;;;;;;115.05;58.60;;;;;;;;;;4691573;30;20495;-81
2021/12/29 15:07:15;;;;;;;107.32;55.78;;;;;;;;;;4691457;30;20054;-82
2021/12/29 15:10:12;;;;;;;93.55;53.25;;;;;;;;;;4698813;30;20054;-81
2021/12/29 15:12:58;;;;;;;134.07;67.88;;;;;;;;;;4708548;30;20053;-81
2021/12/29 15:15:46;;;;;;;125.63;66.07;;;;;;;;;;4708686;30;20061;-82
2021/12/29 15:18:38;;;;;;;116.07;62.70;;;;;;;;;;4708796;30;20053;-82
2021/12/29 15:21:24;;;;;;;127.88;53.65;;;;;;;;;;4706913;30;20057;-82
2021/12/29 15:24:09;;;;;;;124.47;55.50;;;;;;;;;;4688652;30;20158;-80
2021/12/29 15:26:54;;;;;;;104.13;51.40;;;;;;;;;;4693484;30;20495;-83
2021/12/29 15:29:40;;;;;;;105.72;51.25;;;;;;;;;;4696766;30;20062;-82
2021/12/29 15:32:26;;;;;;;107.80;51.33;;;;;;;;;;4702950;30;20046;-81
2021/12/29 15:35:12;;;;;;;110.97;56.80;;;;;;;;;;4695654;30;20049;-82
2021/12/29 15:37:57;;;;;;;126.68;68.45;;;;;;;;;;4704905;30;20049;-81
2021/12/29 15:40:44;;;;;;;132.32;71.97;;;;;;;;;;4695150;30;20378;-81
2021/12/29 15:43:31;;;;;;;166.10;93.10;;;;;;;;;;4707707;30;20359;-82
2021/12/29 15:46:20;;;;;;;172.00;93.65;;;;;;;;;;4683547;30;20053;-83
2021/12/29 15:49:05;;;;;;;152.45;84.72;;;;;;;;;;4681751;30;20053;-84
2021/12/29 15:51:51;;;;;;;155.13;85.93;;;;;;;;;;4695618;30;20053;-82
2021/12/29 15:54:36;;;;;;;128.13;74.45;;;;;;;;;;4693924;30;20057;-81
2021/12/29 15:57:21;;;;;;;115.00;64.22;;;;;;;;;;4686834;30;20071;-84
2021/12/29 16:00:10;;;;;;;119.97;70.28;;;;;;;;;;4689585;30;20049;-81
2021/12/29 16:02:57;;;;;;;127.47;71.63;;;;;;;;;;4684687;30;20058;-79
2021/12/29 16:05:42;;;;;;;138.15;73.57;;;;;;;;;;4691085;30;20058;-80
2021/12/29 16:08:27;;;;;;;147.98;78.85;;;;;;;;;;4690496;30;20058;-80
2021/12/29 16:11:13;;;;;;;141.73;72.13;;;;;;;;;;4690212;30;20058;-79
2021/12/29 16:13:58;;;;;;;141.88;74.70;;;;;;;;;;4684135;30;20046;-82
2021/12/29 16:16:44;;;;;;;147.32;78.25;;;;;;;;;;4689518;30;20058;-80
2021/12/29 16:19:30;;;;;;;148.82;86.10;;;;;;;;;;4684073;30;20498;-80